Time;durP1;ratioP1;P1;durP2;ratioP2;P2;SDS_P1;SDS_P2;PMS_P1;PMS_P2;Temp;Humidity;BMP_temperature;BMP_pressure;BME280_temperature;BME280_humidity;BME280_pressure;Samples;Min_cycle;Max_cycle;Signal;HPM_P1;HPM_P2
2021/12/01 00:00:28;;;;;;;33.80;12.43;;;9.20;94.30;;;;;;5047144;28;20516;-67
2021/12/01 00:02:55;;;;;;;28.13;12.80;;;9.20;94.20;;;;;;5043969;28;20051;-67
2021/12/01 00:05:23;;;;;;;32.08;13.45;;;9.20;94.30;;;;;;5033470;28;20095;-67
2021/12/01 00:07:50;;;;;;;36.35;13.68;;;9.20;94.30;;;;;;5046264;28;20120;-67
2021/12/01 00:10:17;;;;;;;34.72;13.40;;;9.20;94.30;;;;;;5048696;28;20044;-66
2021/12/01 00:12:42;;;;;;;31.88;13.65;;;9.20;94.30;;;;;;5046470;28;20131;-66
2021/12/01 00:15:09;;;;;;;31.60;12.88;;;9.20;94.20;;;;;;5047082;28;20116;-67
2021/12/01 00:17:35;;;;;;;26.80;11.63;;;9.20;94.20;;;;;;5048413;28;20171;-67
2021/12/01 00:20:01;;;;;;;32.47;12.32;;;9.20;94.20;;;;;;5047921;28;20489;-67
2021/12/01 00:22:27;;;;;;;29.75;11.77;;;9.20;94.30;;;;;;5030612;28;20084;-67
2021/12/01 00:24:53;;;;;;;34.63;12.20;;;9.20;94.40;;;;;;5037711;28;20041;-67
2021/12/01 00:27:19;;;;;;;27.10;11.48;;;9.20;94.40;;;;;;5047679;28;20033;-67
2021/12/01 00:29:45;;;;;;;29.15;11.10;;;9.20;94.30;;;;;;5045989;28;20087;-67
2021/12/01 00:32:10;;;;;;;27.02;9.70;;;9.20;94.30;;;;;;5044648;28;20075;-67
2021/12/01 00:34:36;;;;;;;22.33;9.50;;;9.20;94.30;;;;;;5048127;28;20111;-67
2021/12/01 00:37:02;;;;;;;29.65;9.70;;;9.20;94.30;;;;;;5030357;28;20045;-67
2021/12/01 00:39:27;;;;;;;30.08;9.68;;;9.20;94.30;;;;;;5047329;28;20160;-67
2021/12/01 00:41:55;;;;;;;28.15;9.57;;;9.10;94.20;;;;;;5048660;28;20087;-67
2021/12/01 00:44:21;;;;;;;29.00;9.25;;;9.20;94.20;;;;;;5046710;28;20057;-67
2021/12/01 00:49:42;;;;;;;24.23;7.97;;;9.10;94.20;;;;;;5035963;28;20049;-67
2021/12/01 00:52:08;;;;;;;21.80;7.30;;;9.10;94.20;;;;;;5048116;28;20037;-68
2021/12/01 00:54:34;;;;;;;20.55;7.47;;;9.10;94.20;;;;;;5042560;28;20075;-67
2021/12/01 00:57:00;;;;;;;16.75;6.85;;;9.10;94.20;;;;;;5047690;28;20080;-67
2021/12/01 00:59:26;;;;;;;22.90;8.35;;;9.10;94.10;;;;;;5050576;28;20067;-67
2021/12/01 01:01:53;;;;;;;25.90;6.78;;;9.20;94.20;;;;;;5039040;28;20053;-67
2021/12/01 01:04:18;;;;;;;26.90;6.57;;;9.20;94.00;;;;;;5040763;28;20044;-67
2021/12/01 01:06:44;;;;;;;18.58;5.10;;;9.20;93.90;;;;;;5051966;28;20490;-67
2021/12/01 01:09:10;;;;;;;20.40;5.85;;;9.20;94.00;;;;;;5046822;28;20478;-67
2021/12/01 01:17:09;;;;;;;16.80;5.35;;;9.20;94.00;;;;;;5051552;28;20049;-67
2021/12/01 01:19:39;;;;;;;26.27;7.43;;;9.20;94.00;;;;;;5045531;28;20051;-67
2021/12/01 01:22:07;;;;;;;16.13;5.00;;;9.20;94.00;;;;;;5043622;28;20056;-67
2021/12/01 01:24:34;;;;;;;20.35;5.90;;;9.20;93.90;;;;;;5036169;28;20049;-67
2021/12/01 01:27:00;;;;;;;23.05;6.63;;;9.30;93.90;;;;;;5037245;28;20481;-67
2021/12/01 01:29:25;;;;;;;22.00;4.68;;;9.30;93.90;;;;;;5049867;28;20064;-67
2021/12/01 01:31:57;;;;;;;19.63;4.88;;;9.30;93.80;;;;;;5038747;28;20049;-67
2021/12/01 01:34:24;;;;;;;17.33;4.53;;;9.30;93.70;;;;;;5043473;28;20508;-67
2021/12/01 01:36:51;;;;;;;13.95;3.80;;;9.30;93.60;;;;;;5051829;28;20049;-67
2021/12/01 01:39:17;;;;;;;17.38;4.43;;;9.30;93.80;;;;;;5050886;28;20170;-67
2021/12/01 01:41:44;;;;;;;14.30;3.83;;;9.30;93.70;;;;;;5051246;28;20500;-68
2021/12/01 01:44:10;;;;;;;23.58;6.40;;;9.30;93.70;;;;;;5049736;28;20581;-67
2021/12/01 01:46:38;;;;;;;14.65;3.55;;;9.40;93.60;;;;;;5044187;28;20076;-67
2021/12/01 01:49:09;;;;;;;17.45;3.30;;;9.40;93.50;;;;;;5044499;28;20041;-67
2021/12/01 01:51:35;;;;;;;21.48;4.90;;;9.40;93.40;;;;;;5050839;28;20047;-67
2021/12/01 01:54:01;;;;;;;15.38;2.85;;;9.40;93.40;;;;;;5043376;28;20440;-67
2021/12/01 01:56:28;;;;;;;12.48;2.92;;;9.40;93.40;;;;;;5032815;28;20284;-67
2021/12/01 01:58:55;;;;;;;19.33;2.85;;;9.40;93.40;;;;;;5040206;28;20406;-67
2021/12/01 02:01:43;;;;;;;13.52;2.58;;;9.40;93.30;;;;;;5049504;28;20053;-67
2021/12/01 02:04:10;;;;;;;11.02;3.08;;;9.40;93.30;;;;;;5050674;28;20052;-67
2021/12/01 02:06:36;;;;;;;14.98;2.58;;;9.30;93.30;;;;;;5050697;28;20037;-67
2021/12/01 02:09:02;;;;;;;18.15;2.45;;;9.30;93.30;;;;;;5051228;28;20118;-67
2021/12/01 02:11:29;;;;;;;13.23;2.20;;;9.30;93.50;;;;;;5049823;28;20402;-67
2021/12/01 02:13:55;;;;;;;9.48;2.20;;;9.30;93.60;;;;;;5050845;28;20049;-67
2021/12/01 02:16:21;;;;;;;12.82;2.03;;;9.30;93.70;;;;;;5050361;28;20131;-67
2021/12/01 02:18:48;;;;;;;11.82;2.40;;;9.30;94.20;;;;;;5044083;28;20398;-67
2021/12/01 02:21:15;;;;;;;7.43;2.05;;;9.30;94.30;;;;;;5043499;28;20587;-67
2021/12/01 02:23:44;;;;;;;18.15;2.67;;;9.40;94.50;;;;;;5050378;28;20052;-67
2021/12/01 02:26:12;;;;;;;8.95;1.80;;;9.40;94.70;;;;;;5050015;28;20034;-67
2021/12/01 02:28:39;;;;;;;17.50;3.80;;;9.50;94.60;;;;;;5049726;28;20435;-67
2021/12/01 02:31:05;;;;;;;11.50;2.58;;;9.50;94.70;;;;;;5047581;28;20077;-68
2021/12/01 02:33:31;;;;;;;19.13;2.33;;;9.60;94.60;;;;;;5049648;28;20096;-67
2021/12/01 02:35:56;;;;;;;14.23;1.92;;;9.60;94.40;;;;;;5045197;28;20068;-67
2021/12/01 02:38:23;;;;;;;16.30;2.67;;;9.60;94.10;;;;;;5047717;28;20515;-68
2021/12/01 02:40:48;;;;;;;14.98;3.33;;;9.60;93.90;;;;;;5047891;28;20073;-67
2021/12/01 02:43:15;;;;;;;10.52;2.38;;;9.70;93.80;;;;;;5049338;28;20099;-67
2021/12/01 02:45:41;;;;;;;21.25;2.50;;;9.70;93.70;;;;;;5033755;28;20057;-67
2021/12/01 02:48:11;;;;;;;16.83;5.47;;;9.70;93.50;;;;;;5048837;28;20044;-68
2021/12/01 02:50:39;;;;;;;18.17;3.30;;;9.80;93.60;;;;;;5049469;28;20600;-67
2021/12/01 02:53:05;;;;;;;14.70;3.63;;;9.80;93.60;;;;;;5044676;28;20048;-67
2021/12/01 02:55:32;;;;;;;20.45;3.83;;;9.70;93.70;;;;;;5042878;28;20577;-67
2021/12/01 02:57:59;;;;;;;13.18;3.05;;;9.80;93.70;;;;;;5049362;28;20291;-67
2021/12/01 03:00:26;;;;;;;19.80;3.55;;;9.90;93.70;;;;;;5040421;28;20053;-67
2021/12/01 03:02:52;;;;;;;11.45;2.40;;;9.90;93.90;;;;;;5048481;28;20052;-67
2021/12/01 03:05:19;;;;;;;18.52;2.45;;;9.90;93.80;;;;;;5045301;28;20204;-68
2021/12/01 03:07:45;;;;;;;14.73;2.47;;;9.90;93.80;;;;;;5031922;28;20080;-68
2021/12/01 03:10:12;;;;;;;17.10;3.05;;;9.90;93.80;;;;;;5044976;28;20561;-67
2021/12/01 03:12:40;;;;;;;17.00;2.92;;;9.90;93.70;;;;;;5025179;28;20051;-67
2021/12/01 03:15:09;;;;;;;15.68;2.72;;;9.90;93.80;;;;;;5049991;28;20048;-67
2021/12/01 03:17:35;;;;;;;18.60;3.13;;;9.80;93.80;;;;;;5048544;28;20409;-67
2021/12/01 03:20:00;;;;;;;19.92;2.90;;;9.80;93.90;;;;;;5048193;28;20040;-67
2021/12/01 03:22:27;;;;;;;18.33;3.42;;;9.90;93.70;;;;;;5048775;28;20048;-68
2021/12/01 03:24:53;;;;;;;19.02;4.03;;;9.80;93.70;;;;;;5049372;28;20086;-67
2021/12/01 03:27:19;;;;;;;12.35;2.63;;;9.90;93.50;;;;;;5047715;28;20068;-68
2021/12/01 03:29:46;;;;;;;25.00;3.45;;;9.90;93.30;;;;;;5044654;28;20457;-68
2021/12/01 03:32:13;;;;;;;26.25;4.07;;;9.90;93.10;;;;;;5029071;28;20533;-67
2021/12/01 03:34:40;;;;;;;21.27;3.95;;;9.90;93.10;;;;;;5034260;28;20052;-67
2021/12/01 03:37:06;;;;;;;26.88;4.22;;;9.90;93.10;;;;;;5046840;28;20133;-67
2021/12/01 03:39:31;;;;;;;36.03;6.75;;;9.90;92.90;;;;;;5049685;28;20460;-67
2021/12/01 03:41:57;;;;;;;23.65;3.97;;;9.90;92.70;;;;;;5049360;28;20476;-67
2021/12/01 03:44:23;;;;;;;24.92;3.65;;;9.80;92.90;;;;;;5048991;28;20041;-67
2021/12/01 03:46:48;;;;;;;29.75;4.78;;;9.80;92.80;;;;;;5049346;28;20090;-67
2021/12/01 03:49:15;;;;;;;32.40;5.40;;;9.80;92.80;;;;;;5049778;28;20123;-67
2021/12/01 03:51:40;;;;;;;32.50;6.40;;;9.80;92.80;;;;;;5047203;28;20041;-66
2021/12/01 03:54:06;;;;;;;20.13;3.88;;;9.90;92.90;;;;;;5041680;28;20045;-68
2021/12/01 03:56:33;;;;;;;29.60;4.60;;;9.80;93.10;;;;;;5041265;28;20479;-68
2021/12/01 03:59:00;;;;;;;32.63;4.07;;;9.90;93.00;;;;;;5049414;28;20037;-68
2021/12/01 04:01:26;;;;;;;28.05;5.22;;;9.90;93.10;;;;;;5047981;28;20092;-68
2021/12/01 04:03:51;;;;;;;22.02;3.22;;;9.80;93.20;;;;;;5047500;28;20101;-68
2021/12/01 04:06:17;;;;;;;31.42;4.15;;;9.80;93.20;;;;;;5040097;28;20131;-68
2021/12/01 04:08:43;;;;;;;28.83;4.40;;;9.70;93.30;;;;;;5031755;28;20048;-68
2021/12/01 04:11:09;;;;;;;32.35;5.10;;;9.80;93.20;;;;;;5047580;28;20047;-68
2021/12/01 04:13:34;;;;;;;36.35;5.78;;;9.70;93.40;;;;;;5048402;28;20047;-68
2021/12/01 04:16:00;;;;;;;42.92;6.00;;;9.70;93.50;;;;;;5048440;28;20040;-68
2021/12/01 04:18:26;;;;;;;25.40;3.72;;;9.70;93.50;;;;;;5048815;28;20490;-68
2021/12/01 04:20:51;;;;;;;29.73;5.63;;;9.70;93.70;;;;;;5048788;28;20091;-68
2021/12/01 04:23:17;;;;;;;30.30;5.72;;;9.60;93.70;;;;;;5048341;28;20409;-69
2021/12/01 04:25:43;;;;;;;26.10;3.60;;;9.70;93.80;;;;;;5041270;28;20053;-68
2021/12/01 04:28:08;;;;;;;29.80;3.67;;;9.60;93.90;;;;;;5046923;28;20119;-69
2021/12/01 04:30:34;;;;;;;20.05;3.08;;;9.60;94.00;;;;;;5045381;28;20041;-68
2021/12/01 04:33:00;;;;;;;19.67;2.90;;;9.60;94.00;;;;;;5046992;28;20037;-68
2021/12/01 04:35:27;;;;;;;15.60;2.85;;;9.60;94.00;;;;;;5047883;28;20044;-68
2021/12/01 04:37:54;;;;;;;15.55;2.33;;;9.60;94.00;;;;;;5048327;28;20576;-68
2021/12/01 04:40:19;;;;;;;13.90;2.38;;;9.60;94.10;;;;;;5048443;28;20041;-68
2021/12/01 04:42:45;;;;;;;10.98;2.38;;;9.60;94.30;;;;;;5045900;28;20098;-68
2021/12/01 04:45:17;;;;;;;12.00;2.03;;;9.60;94.20;;;;;;5048551;28;20053;-68
2021/12/01 04:47:51;;;;;;;9.48;1.70;;;9.60;94.30;;;;;;5042855;28;20052;-69
2021/12/01 04:50:20;;;;;;;10.73;1.92;;;9.60;94.20;;;;;;5042226;28;20059;-68
2021/12/01 04:52:46;;;;;;;4.05;1.67;;;9.60;94.30;;;;;;5038986;28;20041;-68
2021/12/01 04:55:12;;;;;;;6.63;1.27;;;9.60;94.20;;;;;;5026288;28;20037;-69
2021/12/01 04:57:43;;;;;;;2.35;1.05;;;9.50;94.00;;;;;;5048507;28;20044;-69
2021/12/01 05:00:11;;;;;;;1.42;0.95;;;9.50;94.00;;;;;;5045443;28;20060;-68
2021/12/01 05:02:37;;;;;;;3.58;1.60;;;9.40;94.00;;;;;;5033398;28;20058;-69
2021/12/01 05:05:03;;;;;;;2.20;1.25;;;9.40;94.00;;;;;;5043133;28;20048;-69
2021/12/01 05:07:29;;;;;;;2.90;1.55;;;9.30;94.10;;;;;;5048643;28;20049;-69
2021/12/01 05:09:56;;;;;;;2.33;1.50;;;9.30;94.00;;;;;;5047376;28;20064;-72
2021/12/01 05:12:21;;;;;;;3.10;1.50;;;9.20;94.10;;;;;;5048121;28;20051;-71
2021/12/01 05:14:47;;;;;;;3.05;1.80;;;9.30;94.40;;;;;;5048024;28;20045;-70
2021/12/01 05:17:13;;;;;;;1.92;1.73;;;9.30;94.30;;;;;;5045805;28;20037;-70
2021/12/01 05:19:38;;;;;;;2.22;1.52;;;9.20;94.30;;;;;;5046667;28;20122;-70
2021/12/01 05:22:05;;;;;;;1.92;1.40;;;9.20;94.30;;;;;;5045151;28;20099;-70
2021/12/01 05:24:31;;;;;;;1.98;1.40;;;9.20;94.30;;;;;;5036782;28;20059;-70
2021/12/01 05:26:57;;;;;;;2.92;1.42;;;9.20;94.40;;;;;;5047554;28;20053;-70
2021/12/01 05:29:23;;;;;;;1.98;1.60;;;9.30;94.10;;;;;;5047000;28;20152;-70
2021/12/01 05:31:50;;;;;;;1.60;1.30;;;9.20;94.20;;;;;;5046276;28;20564;-69
2021/12/01 05:34:16;;;;;;;4.22;1.80;;;9.20;94.00;;;;;;5047114;28;20410;-70
2021/12/01 05:36:42;;;;;;;3.53;2.10;;;9.20;94.00;;;;;;5048024;28;20041;-71
2021/12/01 05:39:08;;;;;;;4.05;2.25;;;9.10;94.10;;;;;;5048083;28;20057;-71
2021/12/01 05:41:33;;;;;;;2.25;1.55;;;9.10;93.90;;;;;;5048272;28;20057;-71
2021/12/01 05:43:59;;;;;;;2.25;1.80;;;9.10;93.90;;;;;;5047902;28;20037;-71
2021/12/01 05:46:27;;;;;;;2.00;1.70;;;9.10;93.90;;;;;;5051740;28;20075;-71
2021/12/01 05:48:53;;;;;;;2.63;1.80;;;9.10;93.80;;;;;;5050413;28;20132;-70
2021/12/01 05:51:20;;;;;;;5.90;2.65;;;9.10;94.00;;;;;;5051688;28;20044;-71
2021/12/01 05:53:47;;;;;;;5.38;2.10;;;9.10;93.90;;;;;;5050877;28;20146;-71
2021/12/01 05:56:16;;;;;;;3.33;2.58;;;9.00;93.90;;;;;;5050674;28;20413;-70
2021/12/01 05:58:42;;;;;;;5.60;2.67;;;9.00;94.10;;;;;;5048933;28;20106;-70
2021/12/01 06:01:08;;;;;;;4.22;3.20;;;9.00;94.10;;;;;;5041324;28;20132;-71
2021/12/01 06:03:34;;;;;;;3.78;2.90;;;8.90;94.10;;;;;;5032964;28;20523;-70
2021/12/01 06:06:00;;;;;;;5.43;2.95;;;8.90;94.10;;;;;;5049808;28;20382;-71
2021/12/01 06:08:26;;;;;;;4.13;2.58;;;8.90;94.20;;;;;;5051065;28;20060;-71
2021/12/01 06:10:52;;;;;;;3.40;2.67;;;8.90;94.10;;;;;;5050236;28;20045;-71
2021/12/01 06:13:20;;;;;;;3.22;2.67;;;8.90;94.20;;;;;;5051254;28;20146;-70
2021/12/01 06:15:49;;;;;;;3.28;2.40;;;8.90;94.20;;;;;;5049838;28;20353;-71
2021/12/01 06:18:14;;;;;;;3.25;2.25;;;8.80;94.30;;;;;;5051353;28;20044;-71
2021/12/01 06:20:40;;;;;;;3.03;2.40;;;8.80;94.30;;;;;;5049898;28;20041;-69
2021/12/01 06:23:06;;;;;;;4.10;3.28;;;8.80;94.20;;;;;;5050895;28;20049;-72
2021/12/01 06:25:31;;;;;;;4.38;3.55;;;8.90;94.20;;;;;;5050580;28;20072;-71
2021/12/01 06:27:57;;;;;;;4.38;3.38;;;8.90;94.20;;;;;;5049467;28;20045;-72
2021/12/01 06:30:25;;;;;;;3.53;2.80;;;8.90;94.20;;;;;;5033169;28;20045;-69
2021/12/01 06:32:51;;;;;;;3.63;2.92;;;8.90;94.10;;;;;;5032471;28;20706;-71
2021/12/01 06:35:18;;;;;;;8.00;3.17;;;8.90;94.30;;;;;;5041078;28;20441;-73
2021/12/01 06:37:44;;;;;;;2.92;2.42;;;8.90;94.00;;;;;;5050429;28;20084;-72
2021/12/01 06:40:12;;;;;;;4.85;2.80;;;8.90;94.10;;;;;;5049378;28;20494;-70
2021/12/01 06:42:37;;;;;;;3.60;2.50;;;8.90;94.00;;;;;;5049543;28;20107;-71
2021/12/01 06:45:05;;;;;;;3.53;2.85;;;8.90;94.00;;;;;;5051216;28;20045;-71
2021/12/01 06:47:31;;;;;;;4.85;3.13;;;8.80;93.90;;;;;;5048928;28;20528;-71
2021/12/01 06:49:57;;;;;;;6.57;3.20;;;8.90;94.00;;;;;;5049641;28;20037;-73
2021/12/01 06:52:22;;;;;;;5.47;3.60;;;8.90;94.20;;;;;;5049834;28;20045;-72
2021/12/01 06:54:48;;;;;;;5.65;3.60;;;8.90;94.00;;;;;;5036240;28;20053;-72
2021/12/01 06:57:13;;;;;;;6.65;3.75;;;8.80;94.10;;;;;;5032321;28;20068;-72
2021/12/01 06:59:39;;;;;;;6.35;3.67;;;8.80;94.20;;;;;;5049101;28;20060;-72
2021/12/01 07:02:05;;;;;;;5.85;4.38;;;8.80;94.20;;;;;;5050385;28;20091;-72
2021/12/01 07:04:31;;;;;;;6.65;3.65;;;8.90;94.10;;;;;;5032566;28;20466;-72
2021/12/01 07:06:58;;;;;;;5.22;4.03;;;8.90;94.20;;;;;;5050122;28;20051;-72
2021/12/01 07:09:25;;;;;;;7.78;3.88;;;8.90;94.00;;;;;;5049890;28;20123;-72
2021/12/01 07:11:51;;;;;;;5.65;4.25;;;8.90;94.20;;;;;;5049733;28;20044;-72
2021/12/01 07:14:17;;;;;;;7.13;4.40;;;8.90;94.20;;;;;;5050152;28;20430;-70
2021/12/01 07:16:43;;;;;;;7.88;4.03;;;8.90;94.10;;;;;;5050134;28;20083;-71
2021/12/01 07:19:09;;;;;;;6.60;3.65;;;8.90;94.10;;;;;;5038982;28;20056;-69
2021/12/01 07:21:35;;;;;;;12.80;5.28;;;8.90;94.10;;;;;;5045141;28;20508;-72
2021/12/01 07:24:04;;;;;;;9.52;4.18;;;8.90;94.20;;;;;;5026179;28;20084;-71
2021/12/01 07:26:30;;;;;;;6.03;3.30;;;8.90;94.10;;;;;;5035739;28;20064;-71
2021/12/01 07:28:56;;;;;;;9.70;3.65;;;9.10;94.00;;;;;;5038846;28;20493;-72
2021/12/01 07:31:22;;;;;;;8.93;3.78;;;9.00;94.00;;;;;;5039381;28;20045;-72
2021/12/01 07:33:48;;;;;;;7.85;3.70;;;9.00;94.10;;;;;;5022701;28;20172;-71
2021/12/01 07:36:15;;;;;;;12.60;3.50;;;9.10;94.00;;;;;;5038072;28;20041;-71
2021/12/01 07:38:41;;;;;;;8.20;2.88;;;9.10;94.00;;;;;;5042325;28;20083;-71
2021/12/01 07:41:06;;;;;;;8.18;3.35;;;9.10;93.90;;;;;;5038627;28;20048;-71
2021/12/01 07:43:32;;;;;;;5.85;2.15;;;9.10;93.80;;;;;;5042912;28;20501;-71
2021/12/01 07:46:00;;;;;;;8.05;2.50;;;9.10;93.80;;;;;;5037675;28;20080;-70
2021/12/01 07:48:27;;;;;;;9.80;2.22;;;9.10;93.70;;;;;;5035367;28;20053;-69
2021/12/01 07:50:53;;;;;;;10.88;3.28;;;9.10;93.70;;;;;;5017419;28;20036;-69
2021/12/01 07:53:18;;;;;;;10.20;3.60;;;9.10;93.70;;;;;;5039185;28;20063;-68
2021/12/01 07:55:44;;;;;;;13.40;2.55;;;9.20;93.60;;;;;;5048354;28;20037;-69
2021/12/01 07:58:10;;;;;;;13.60;2.95;;;9.20;93.50;;;;;;5042323;28;20041;-70
2021/12/01 08:00:35;;;;;;;13.18;2.80;;;9.20;93.50;;;;;;5038342;28;20068;-70
2021/12/01 08:03:01;;;;;;;12.43;2.88;;;9.30;92.10;;;;;;5037261;28;20134;-70
2021/12/01 08:05:27;;;;;;;13.65;2.35;;;9.30;90.80;;;;;;5034780;28;20409;-69
2021/12/01 08:07:53;;;;;;;11.82;2.58;;;9.30;90.80;;;;;;5039632;28;20041;-69
2021/12/01 08:10:18;;;;;;;12.70;3.28;;;9.30;90.70;;;;;;5041008;28;20050;-69
2021/12/01 08:12:44;;;;;;;11.52;1.90;;;9.20;90.40;;;;;;5048352;28;20465;-72
2021/12/01 08:15:10;;;;;;;14.48;3.28;;;9.10;90.30;;;;;;5019739;28;20625;-74
2021/12/01 08:17:36;;;;;;;16.05;2.50;;;9.10;90.40;;;;;;5038941;28;20041;-73
2021/12/01 08:20:03;;;;;;;16.85;3.70;;;9.10;89.80;;;;;;5033912;28;20090;-72
2021/12/01 08:22:29;;;;;;;19.85;4.63;;;9.10;89.30;;;;;;5023540;28;20512;-70
2021/12/01 08:24:57;;;;;;;14.93;3.08;;;9.10;89.40;;;;;;5025948;28;20056;-71
2021/12/01 08:27:26;;;;;;;15.00;2.63;;;9.10;89.20;;;;;;5029342;28;20059;-71
2021/12/01 08:29:52;;;;;;;7.57;2.10;;;9.10;88.30;;;;;;5037942;28;20383;-71
2021/12/01 08:32:18;;;;;;;13.48;2.47;;;9.10;88.50;;;;;;5038152;28;20044;-70
2021/12/01 08:34:49;;;;;;;8.32;1.50;;;9.00;88.30;;;;;;5040824;28;20087;-71
2021/12/01 08:37:17;;;;;;;11.07;1.60;;;9.00;88.90;;;;;;5035555;28;20053;-70
2021/12/01 08:39:42;;;;;;;10.40;1.95;;;9.10;88.90;;;;;;5032264;28;20053;-70
2021/12/01 08:42:10;;;;;;;14.27;2.97;;;9.10;89.30;;;;;;5033047;28;20067;-72
2021/12/01 08:44:36;;;;;;;8.27;1.73;;;9.10;89.20;;;;;;5048626;28;20489;-71
2021/12/01 08:47:02;;;;;;;17.38;2.53;;;9.10;89.30;;;;;;5047899;28;20067;-70
2021/12/01 08:49:28;;;;;;;12.93;2.80;;;9.10;89.20;;;;;;5047766;28;20041;-70
2021/12/01 08:51:54;;;;;;;14.23;3.13;;;9.10;89.70;;;;;;5049038;28;20532;-70
2021/12/01 08:54:19;;;;;;;9.88;1.88;;;9.10;90.30;;;;;;5047360;28;20045;-71
2021/12/01 08:56:45;;;;;;;14.13;2.10;;;9.00;90.60;;;;;;5047653;28;20107;-72
2021/12/01 08:59:11;;;;;;;11.45;2.42;;;9.00;90.50;;;;;;5048634;28;20125;-70
2021/12/01 09:01:37;;;;;;;10.07;2.08;;;9.10;90.80;;;;;;5047722;28;20047;-71
2021/12/01 09:04:02;;;;;;;10.73;2.13;;;9.00;90.80;;;;;;5046791;28;20048;-71
2021/12/01 09:06:28;;;;;;;17.85;2.95;;;8.90;90.80;;;;;;5048722;28;20053;-71
2021/12/01 09:08:54;;;;;;;9.07;1.90;;;8.90;90.80;;;;;;5048339;28;20052;-69
2021/12/01 09:11:20;;;;;;;12.98;2.20;;;8.90;91.20;;;;;;5046275;28;20088;-69
2021/12/01 09:13:46;;;;;;;11.50;2.08;;;8.90;91.50;;;;;;5047637;28;20132;-69
2021/12/01 09:16:11;;;;;;;13.50;2.42;;;8.80;91.40;;;;;;5043311;28;20124;-68
2021/12/01 09:18:37;;;;;;;15.30;1.85;;;8.80;91.60;;;;;;5045591;28;20472;-69
2021/12/01 09:21:04;;;;;;;16.85;3.17;;;8.80;91.20;;;;;;5050968;28;20052;-68
2021/12/01 09:23:30;;;;;;;12.40;2.30;;;8.80;91.60;;;;;;5049079;28;20045;-69
2021/12/01 09:25:56;;;;;;;13.95;2.10;;;8.70;91.50;;;;;;5052112;28;20128;-69
2021/12/01 09:28:24;;;;;;;14.95;2.70;;;8.70;91.10;;;;;;5049523;28;20041;-68
2021/12/01 09:30:51;;;;;;;18.33;2.85;;;8.80;91.10;;;;;;5043641;28;20044;-68
2021/12/01 09:33:17;;;;;;;11.88;2.60;;;8.70;91.20;;;;;;5051384;28;20037;-68
2021/12/01 09:35:45;;;;;;;20.88;4.28;;;8.80;91.20;;;;;;5052114;28;20052;-68
2021/12/01 09:38:14;;;;;;;16.33;2.50;;;8.80;91.00;;;;;;5051128;28;20163;-68
2021/12/01 09:40:47;;;;;;;14.98;3.65;;;8.80;91.10;;;;;;5038934;28;20048;-67
2021/12/01 09:43:13;;;;;;;33.17;6.57;;;8.80;91.00;;;;;;5051126;28;20071;-67
2021/12/01 09:45:40;;;;;;;18.40;3.03;;;8.90;91.00;;;;;;5051716;28;20045;-67
2021/12/01 09:48:06;;;;;;;19.00;3.45;;;8.90;90.80;;;;;;5045739;28;20033;-68
2021/12/01 09:50:32;;;;;;;22.48;4.05;;;9.00;90.60;;;;;;5050504;28;20123;-68
2021/12/01 09:52:57;;;;;;;23.13;3.67;;;9.10;90.40;;;;;;5042348;28;20478;-68
2021/12/01 09:55:23;;;;;;;21.67;3.88;;;9.10;89.90;;;;;;5049891;28;20049;-68
2021/12/01 09:57:54;;;;;;;25.17;4.75;;;9.10;90.30;;;;;;5047139;28;20086;-67
2021/12/01 10:00:20;;;;;;;17.52;4.28;;;9.10;89.90;;;;;;5034719;28;20409;-67
2021/12/01 10:02:45;;;;;;;24.48;4.15;;;9.00;90.20;;;;;;5049561;28;20048;-68
2021/12/01 10:05:11;;;;;;;26.08;4.90;;;9.00;90.30;;;;;;5050617;28;20037;-67
2021/12/01 10:07:37;;;;;;;21.85;4.53;;;9.10;89.90;;;;;;5050731;28;20083;-67
2021/12/01 10:10:09;;;;;;;20.98;3.47;;;9.10;89.70;;;;;;5045697;28;20045;-67
2021/12/01 10:12:50;;;;;;;28.63;3.80;;;8.90;90.00;;;;;;5049855;28;20136;-67
2021/12/01 10:15:31;;;;;;;20.45;3.25;;;8.80;89.90;;;;;;5048525;28;20493;-68
2021/12/01 10:18:16;;;;;;;28.08;4.93;;;8.90;89.80;;;;;;5030777;28;20052;-67
2021/12/01 10:20:45;;;;;;;21.17;3.53;;;8.80;89.90;;;;;;5024807;28;20045;-67
2021/12/01 10:23:14;;;;;;;17.65;2.55;;;8.80;90.00;;;;;;5041091;28;20049;-67
2021/12/01 10:25:41;;;;;;;17.63;3.42;;;8.80;90.60;;;;;;5045709;28;20041;-67
2021/12/01 10:28:07;;;;;;;12.30;1.98;;;8.70;90.10;;;;;;5032387;28;20047;-67
2021/12/01 10:30:44;;;;;;;6.85;1.75;;;8.60;88.80;;;;;;5049956;28;20041;-67
2021/12/01 10:33:16;;;;;;;14.75;2.10;;;8.70;88.20;;;;;;5050645;28;20582;-67
2021/12/01 10:35:41;;;;;;;13.20;1.98;;;8.60;88.10;;;;;;5028694;28;20044;-67
2021/12/01 10:38:09;;;;;;;17.73;2.38;;;8.60;89.20;;;;;;5049699;28;20049;-67
2021/12/01 10:40:37;;;;;;;24.17;3.92;;;8.60;89.90;;;;;;5048710;28;20045;-67
2021/12/01 10:43:16;;;;;;;22.30;3.28;;;8.60;90.20;;;;;;5026026;28;20109;-67
2021/12/01 10:45:45;;;;;;;23.90;3.47;;;8.70;90.20;;;;;;5050593;28;20041;-67
2021/12/01 10:48:22;;;;;;;19.00;3.47;;;8.80;89.20;;;;;;5050064;28;20102;-67
2021/12/01 10:50:48;;;;;;;14.73;2.28;;;8.80;88.50;;;;;;5050163;28;20044;-67
2021/12/01 10:53:18;;;;;;;10.82;1.77;;;8.80;87.60;;;;;;5048885;28;20398;-67
2021/12/01 10:55:52;;;;;;;13.45;2.50;;;8.80;87.50;;;;;;5049754;28;20037;-68
2021/12/01 10:58:18;;;;;;;20.58;2.95;;;8.80;87.10;;;;;;5047805;28;20051;-67
2021/12/01 11:00:50;;;;;;;19.05;3.28;;;8.80;87.30;;;;;;5050199;28;20056;-67
2021/12/01 11:03:16;;;;;;;14.38;2.60;;;8.90;87.30;;;;;;5045264;28;20044;-67
2021/12/01 11:05:47;;;;;;;21.25;3.70;;;9.00;87.10;;;;;;5049695;28;20063;-67
2021/12/01 11:08:27;;;;;;;21.23;3.08;;;9.00;88.00;;;;;;5038982;28;20124;-67
2021/12/01 11:11:06;;;;;;;22.83;5.15;;;8.90;88.80;;;;;;5047252;28;20037;-67
2021/12/01 11:13:33;;;;;;;18.08;3.40;;;8.80;88.80;;;;;;5032298;28;20041;-67
2021/12/01 11:16:06;;;;;;;28.17;4.22;;;8.90;88.70;;;;;;5043725;28;20041;-67
2021/12/01 11:18:34;;;;;;;19.85;3.45;;;8.90;88.90;;;;;;5035762;28;20033;-68
2021/12/01 11:21:03;;;;;;;22.60;4.20;;;8.90;88.90;;;;;;5048175;28;20611;-67
2021/12/01 11:23:31;;;;;;;30.95;6.03;;;8.90;88.60;;;;;;5050283;28;20083;-67
2021/12/01 11:26:05;;;;;;;29.85;5.88;;;9.00;87.50;;;;;;5049815;28;20521;-66
2021/12/01 11:28:33;;;;;;;38.80;6.93;;;9.00;85.70;;;;;;5048645;28;20112;-65
2021/12/01 11:31:02;;;;;;;29.45;4.38;;;9.00;83.30;;;;;;5030207;28;20044;-67
2021/12/01 11:33:29;;;;;;;23.52;4.63;;;9.00;82.80;;;;;;5046435;28;20452;-67
2021/12/01 11:36:02;;;;;;;25.60;5.45;;;8.90;82.30;;;;;;5046366;28;20875;-68
2021/12/01 11:38:28;;;;;;;25.52;5.00;;;8.80;82.30;;;;;;5042417;28;20505;-67
2021/12/01 11:40:55;;;;;;;21.73;4.07;;;8.80;81.00;;;;;;5044592;28;20033;-67
2021/12/01 11:43:24;;;;;;;22.25;4.43;;;8.80;81.20;;;;;;5049399;28;20092;-67
2021/12/01 11:45:50;;;;;;;32.40;6.35;;;8.90;81.40;;;;;;5048085;28;20037;-67
2021/12/01 11:48:22;;;;;;;19.70;4.07;;;8.80;81.60;;;;;;5047509;28;20606;-68
2021/12/01 11:50:54;;;;;;;;;;;8.80;80.90;;;;;;5041599;28;20057;-68
2021/12/01 11:53:25;;;;;;;18.52;3.15;;;8.70;80.10;;;;;;5047472;28;20019;-68
2021/12/01 11:56:03;;;;;;;15.50;3.90;;;8.60;80.30;;;;;;5043592;28;20063;-66
2021/12/01 11:58:41;;;;;;;21.13;2.97;;;8.60;80.20;;;;;;5046802;28;20642;-67
2021/12/01 12:01:22;;;;;;;24.90;4.65;;;8.60;80.70;;;;;;5034090;28;20057;-67
2021/12/01 12:03:53;;;;;;;16.90;4.15;;;8.60;81.20;;;;;;5040585;28;20045;-67
2021/12/01 12:06:19;;;;;;;24.08;3.05;;;8.60;81.70;;;;;;5037062;28;20052;-67
2021/12/01 12:08:54;;;;;;;21.00;3.38;;;8.60;81.30;;;;;;5040160;28;20038;-67
2021/12/01 12:11:47;;;;;;;18.15;3.42;;;8.60;81.00;;;;;;5045421;28;20049;-67
2021/12/01 12:14:22;;;;;;;16.75;3.25;;;8.60;81.00;;;;;;5044960;28;20556;-67
2021/12/01 12:17:14;;;;;;;22.88;4.15;;;8.60;80.60;;;;;;5048159;28;20111;-68
2021/12/01 12:20:02;;;;;;;15.50;2.22;;;8.60;81.40;;;;;;5048708;28;20494;-68
2021/12/01 12:22:39;;;;;;;16.08;2.58;;;8.60;81.50;;;;;;5046667;28;20576;-68
2021/12/01 12:25:11;;;;;;;11.73;2.25;;;8.60;81.20;;;;;;5049095;28;20075;-66
2021/12/01 12:27:43;;;;;;;11.20;2.17;;;8.60;81.30;;;;;;5047414;28;20044;-69
2021/12/01 12:30:11;;;;;;;;;;;8.50;81.70;;;;;;5047474;28;20450;-67
2021/12/01 12:32:38;;;;;;;16.20;2.90;;;8.40;82.90;;;;;;5040483;28;19928;-65
2021/12/01 12:35:07;;;;;;;18.98;4.15;;;8.40;83.40;;;;;;5045036;28;20071;-66
2021/12/01 12:37:35;;;;;;;22.42;2.97;;;8.30;84.20;;;;;;5043699;28;20106;-66
2021/12/01 12:40:04;;;;;;;11.82;2.83;;;8.20;84.70;;;;;;5045967;28;20085;-66
2021/12/01 12:42:29;;;;;;;15.30;2.17;;;8.30;83.30;;;;;;5047813;28;20075;-66
2021/12/01 12:44:58;;;;;;;19.30;2.75;;;8.20;83.50;;;;;;5046779;28;20045;-66
2021/12/01 12:47:44;;;;;;;15.32;2.13;;;8.10;83.00;;;;;;5046598;28;20040;-66
2021/12/01 12:50:09;;;;;;;12.77;3.45;;;8.20;83.50;;;;;;5047407;28;20050;-66
2021/12/01 12:52:37;;;;;;;10.15;2.35;;;8.20;83.80;;;;;;5046083;28;20096;-66
2021/12/01 12:55:21;;;;;;;19.10;2.38;;;8.10;84.40;;;;;;5049755;28;20124;-67
2021/12/01 12:58:02;;;;;;;20.08;2.67;;;8.10;84.90;;;;;;5046447;28;20048;-67
2021/12/01 13:00:46;;;;;;;13.38;2.42;;;8.00;84.90;;;;;;5047617;28;20191;-67